createdAt,value
2016-06-30T00:00:21.595Z,64.66
2016-06-30T00:01:21.639Z,64.28
2016-06-30T00:02:21.398Z,65.34
2016-06-30T00:03:21.394Z,65.34
2016-06-30T00:04:21.396Z,64.37
2016-06-30T00:05:21.405Z,65.24
2016-06-30T00:06:21.396Z,65.14
2016-06-30T00:07:21.396Z,64.28
2016-06-30T00:08:21.595Z,64.37
2016-06-30T00:09:21.395Z,64.28
2016-06-30T00:10:21.399Z,65.24
2016-06-30T00:11:21.601Z,65.14
2016-06-30T00:12:21.403Z,64.56
2016-06-30T00:13:21.399Z,65.34
2016-06-30T00:14:21.399Z,64.66
2016-06-30T00:15:21.403Z,64.66
2016-06-30T00:16:21.394Z,65.24
2016-06-30T00:17:21.405Z,64.37
2016-06-30T00:18:21.411Z,65.14
2016-06-30T00:19:21.406Z,65.34
2016-06-30T00:20:21.409Z,64.76
2016-06-30T00:21:21.403Z,65.24
2016-06-30T00:22:21.406Z,64.76
2016-06-30T00:23:21.821Z,64.66
2016-06-30T00:24:21.413Z,64.56
2016-06-30T00:25:21.406Z,64.47
2016-06-30T00:26:21.630Z,64.76
2016-06-30T00:27:21.411Z,65.24
2016-06-30T00:28:21.410Z,65.34
2016-06-30T00:29:21.410Z,64.86
2016-06-30T00:30:21.406Z,64.86
2016-06-30T00:31:21.424Z,64.66
2016-06-30T00:32:21.414Z,64.86
2016-06-30T00:33:21.415Z,64.95
2016-06-30T00:34:21.409Z,64.76
2016-06-30T00:35:21.410Z,64.76
2016-06-30T00:36:21.428Z,64.86
2016-06-30T00:37:21.418Z,64.86
2016-06-30T00:38:21.628Z,64.95
2016-06-30T00:39:21.415Z,64.86
2016-06-30T00:40:21.411Z,64.86
2016-06-30T00:41:21.612Z,65.05
2016-06-30T00:42:21.413Z,64.86
2016-06-30T00:43:21.406Z,64.56
2016-06-30T00:44:21.407Z,64.76
2016-06-30T00:45:21.410Z,65.14
2016-06-30T00:46:21.414Z,64.86
2016-06-30T00:47:21.418Z,64.66
2016-06-30T00:48:21.407Z,64.86
2016-06-30T00:49:21.425Z,64.95
2016-06-30T00:50:21.406Z,64.66
2016-06-30T00:51:21.415Z,64.66
2016-06-30T00:52:21.410Z,65.24
2016-06-30T00:53:21.621Z,64.56
2016-06-30T00:54:21.420Z,64.76
2016-06-30T00:55:21.419Z,64.56
2016-06-30T00:56:21.412Z,64.56
2016-06-30T00:57:21.436Z,64.66
2016-06-30T00:58:21.422Z,64.76
2016-06-30T00:59:21.623Z,64.66
2016-06-30T01:00:21.429Z,64.86
2016-06-30T01:01:21.425Z,64.76
2016-06-30T01:02:21.447Z,64.66
2016-06-30T01:03:21.628Z,64.95
2016-06-30T01:04:21.419Z,65.34
2016-06-30T01:05:21.417Z,64.86
2016-06-30T01:06:21.417Z,64.86
2016-06-30T01:07:21.472Z,64.66
2016-06-30T01:08:21.441Z,64.66
2016-06-30T01:09:21.418Z,64.95
2016-06-30T01:10:21.414Z,64.66
2016-06-30T01:11:21.422Z,64.66
2016-06-30T01:12:21.618Z,64.86
2016-06-30T01:13:21.422Z,64.86
2016-06-30T01:14:21.430Z,64.95
2016-06-30T01:15:21.437Z,64.76
2016-06-30T01:16:21.427Z,64.95
2016-06-30T01:17:21.433Z,64.76
2016-06-30T01:18:21.419Z,64.76
2016-06-30T01:19:21.423Z,64.86
2016-06-30T01:20:21.421Z,64.95
2016-06-30T01:21:21.429Z,64.76
2016-06-30T01:22:21.474Z,64.95
2016-06-30T01:23:21.415Z,64.86
2016-06-30T01:24:21.426Z,64.95
2016-06-30T01:25:21.431Z,64.86
2016-06-30T01:26:21.439Z,64.95
2016-06-30T01:27:21.429Z,64.95
2016-06-30T01:28:21.425Z,64.95
2016-06-30T01:29:21.430Z,64.76
2016-06-30T01:30:21.442Z,64.95
2016-06-30T01:31:21.425Z,64.95
2016-06-30T01:32:21.445Z,64.86
2016-06-30T01:33:21.434Z,65.05
2016-06-30T01:34:21.420Z,64.86
2016-06-30T01:35:21.431Z,64.86
2016-06-30T01:36:21.427Z,64.86
2016-06-30T01:37:21.626Z,64.86
2016-06-30T01:38:21.431Z,64.86
2016-06-30T01:39:21.631Z,64.86
2016-06-30T01:40:21.435Z,64.95
2016-06-30T01:41:21.427Z,65.05
2016-06-30T01:42:21.436Z,64.95
2016-06-30T01:43:21.437Z,65.05
2016-06-30T01:44:21.428Z,65.05
2016-06-30T01:45:21.439Z,64.86
2016-06-30T01:46:21.434Z,65.05
2016-06-30T01:47:21.439Z,64.86
2016-06-30T01:48:21.452Z,65.05
2016-06-30T01:49:21.431Z,64.86
2016-06-30T01:50:21.429Z,64.86
2016-06-30T01:51:21.430Z,64.86
2016-06-30T01:52:21.446Z,64.76
2016-06-30T01:53:21.430Z,64.82
2016-06-30T01:54:21.437Z,64.86
2016-06-30T01:55:21.438Z,64.95
2016-06-30T01:56:21.431Z,65.05
2016-06-30T01:57:21.637Z,65.11
2016-06-30T01:58:21.446Z,65.05
2016-06-30T01:59:21.431Z,65.05
2016-06-30T02:00:21.434Z,65.05
2016-06-30T02:01:21.448Z,65.11
2016-06-30T02:02:21.441Z,65.01
2016-06-30T02:03:21.430Z,64.92
2016-06-30T02:04:21.454Z,64.76
2016-06-30T02:05:21.443Z,64.72
2016-06-30T02:06:21.435Z,64.76
2016-06-30T02:07:21.722Z,64.66
2016-06-30T02:08:21.450Z,64.72
2016-06-30T02:09:21.461Z,64.95
2016-06-30T02:10:21.472Z,64.82
2016-06-30T02:11:21.447Z,64.72
2016-06-30T02:12:21.443Z,64.72
2016-06-30T02:13:21.440Z,64.72
2016-06-30T02:14:21.438Z,64.95
2016-06-30T02:15:21.436Z,65.01
2016-06-30T02:16:21.443Z,65.11
2016-06-30T02:17:21.438Z,64.82
2016-06-30T02:18:21.447Z,64.82
2016-06-30T02:19:21.440Z,64.92
2016-06-30T02:20:21.441Z,64.92
2016-06-30T02:21:21.441Z,64.82
2016-06-30T02:22:21.442Z,65.2
2016-06-30T02:23:21.435Z,65.11
2016-06-30T02:24:21.438Z,65.01
2016-06-30T02:25:21.433Z,65.3
2016-06-30T02:26:21.449Z,65.11
2016-06-30T02:27:21.439Z,65.3
2016-06-30T02:28:21.441Z,65.11
2016-06-30T02:29:21.469Z,64.92
2016-06-30T02:30:21.466Z,65.4
2016-06-30T02:31:21.459Z,65.11
2016-06-30T02:32:21.450Z,65.01
2016-06-30T02:33:21.449Z,65.2
2016-06-30T02:34:21.447Z,65.2
2016-06-30T02:35:21.656Z,64.82
2016-06-30T02:36:21.474Z,65.4
2016-06-30T02:37:21.442Z,65.2
2016-06-30T02:38:21.441Z,65.2
2016-06-30T02:39:21.445Z,65.11
2016-06-30T02:40:21.441Z,65.2
2016-06-30T02:41:21.445Z,65.2
2016-06-30T02:42:21.445Z,65.11
2016-06-30T02:43:21.448Z,65.11
2016-06-30T02:44:21.459Z,65.01
2016-06-30T02:45:21.461Z,65.2
2016-06-30T02:46:21.444Z,65.2
2016-06-30T02:47:21.442Z,65.2
2016-06-30T02:48:21.445Z,65.3
2016-06-30T02:49:21.450Z,65.69
2016-06-30T02:50:21.450Z,65.3
2016-06-30T02:51:21.443Z,65.11
2016-06-30T02:52:21.447Z,65.59
2016-06-30T02:53:21.452Z,65.59
2016-06-30T02:54:21.453Z,65.59
2016-06-30T02:55:21.443Z,65.5
2016-06-30T02:56:21.454Z,65.59
2016-06-30T02:57:21.447Z,65.59
2016-06-30T02:58:21.453Z,65.59
2016-06-30T02:59:21.445Z,65.69
2016-06-30T03:00:21.446Z,65.78
2016-06-30T03:01:21.443Z,65.5
2016-06-30T03:02:21.436Z,65.5
2016-06-30T03:03:21.447Z,65.5
2016-06-30T03:04:21.463Z,65.2
2016-06-30T03:05:21.449Z,65.2
2016-06-30T03:06:21.439Z,65.4
2016-06-30T03:07:21.502Z,65.4
2016-06-30T03:08:21.455Z,65.5
2016-06-30T03:09:21.451Z,65.4
2016-06-30T03:10:21.447Z,65.2
2016-06-30T03:11:21.647Z,65.4
2016-06-30T03:12:21.449Z,65.3
2016-06-30T03:13:21.446Z,65.2
2016-06-30T03:14:21.646Z,65.11
2016-06-30T03:15:21.452Z,65.2
2016-06-30T03:16:21.447Z,65.4
2016-06-30T03:17:21.446Z,65.01
2016-06-30T03:18:21.443Z,65.2
2016-06-30T03:19:21.462Z,65.5
2016-06-30T03:20:21.654Z,65.59
2016-06-30T03:21:21.490Z,65.59
2016-06-30T03:22:21.501Z,65.4
2016-06-30T03:23:21.556Z,65.59
2016-06-30T03:24:21.447Z,65.5
2016-06-30T03:25:21.655Z,65.69
2016-06-30T03:26:21.465Z,65.5
2016-06-30T03:27:21.442Z,65.59
2016-06-30T03:28:21.452Z,65.59
2016-06-30T03:29:21.449Z,65.69
2016-06-30T03:30:21.443Z,65.88
2016-06-30T03:31:21.465Z,65.59
2016-06-30T03:32:21.444Z,65.78
2016-06-30T03:33:21.456Z,65.69
2016-06-30T03:34:21.450Z,65.88
2016-06-30T03:35:21.451Z,65.78
2016-06-30T03:36:21.445Z,65.78
2016-06-30T03:37:21.446Z,65.69
2016-06-30T03:38:21.461Z,65.5
2016-06-30T03:39:21.447Z,65.88
2016-06-30T03:40:21.451Z,65.78
2016-06-30T03:41:21.458Z,65.78
2016-06-30T03:42:21.446Z,65.69
2016-06-30T03:43:21.447Z,65.59
2016-06-30T03:44:21.446Z,65.5
2016-06-30T03:45:21.453Z,66.08
2016-06-30T03:46:21.442Z,65.69
2016-06-30T03:47:21.656Z,65.85
2016-06-30T03:48:21.455Z,65.78
2016-06-30T03:49:21.443Z,65.88
2016-06-30T03:50:21.461Z,66.14
2016-06-30T03:51:21.458Z,65.98
2016-06-30T03:52:21.442Z,65.59
2016-06-30T03:53:21.448Z,66.27
2016-06-30T03:54:21.454Z,65.59
2016-06-30T03:55:21.446Z,65.59
2016-06-30T03:56:21.454Z,65.75
2016-06-30T03:57:21.451Z,65.78
2016-06-30T03:58:21.448Z,65.78
2016-06-30T03:59:21.441Z,65.78
2016-06-30T04:00:21.515Z,66.27
2016-06-30T04:01:21.689Z,65.88
2016-06-30T04:02:21.446Z,65.66
2016-06-30T04:03:21.446Z,66.33
2016-06-30T04:04:21.443Z,66.43
2016-06-30T04:05:21.449Z,66.04
2016-06-30T04:06:21.442Z,65.95
2016-06-30T04:07:21.501Z,66.27
2016-06-30T04:08:21.452Z,66.62
2016-06-30T04:09:21.451Z,66.33
2016-06-30T04:10:21.445Z,65.56
2016-06-30T04:11:21.439Z,66.62
2016-06-30T04:12:21.656Z,66.52
2016-06-30T04:13:21.442Z,65.85
2016-06-30T04:14:21.438Z,66.14
2016-06-30T04:15:21.450Z,66.43
2016-06-30T04:16:21.450Z,66.43
2016-06-30T04:17:21.439Z,66.14
2016-06-30T04:18:21.645Z,66.04
2016-06-30T04:19:21.448Z,66.14
2016-06-30T04:20:21.454Z,66.14
2016-06-30T04:21:21.457Z,66.62
2016-06-30T04:22:21.452Z,66.52
2016-06-30T04:23:21.446Z,66.72
2016-06-30T04:24:21.463Z,66.33
2016-06-30T04:25:21.456Z,66.43
2016-06-30T04:26:21.441Z,66.52
2016-06-30T04:27:21.472Z,66.43
2016-06-30T04:28:21.450Z,66.43
2016-06-30T04:29:21.451Z,66.62
2016-06-30T04:30:21.455Z,66.62
2016-06-30T04:31:21.443Z,66.72
2016-06-30T04:32:21.449Z,66.72
2016-06-30T04:33:21.452Z,66.43
2016-06-30T04:34:21.452Z,66.62
2016-06-30T04:35:21.446Z,66.91
2016-06-30T04:36:21.446Z,66.82
2016-06-30T04:37:21.498Z,66.62
2016-06-30T04:38:21.446Z,66.33
2016-06-30T04:39:21.453Z,66.91
2016-06-30T04:40:21.446Z,67
2016-06-30T04:41:21.441Z,66.72
2016-06-30T04:42:21.440Z,66.62
2016-06-30T04:43:21.643Z,66.82
2016-06-30T04:44:21.450Z,66.72
2016-06-30T04:45:21.443Z,66.91
2016-06-30T04:46:21.439Z,66.91
2016-06-30T04:47:21.432Z,66.91
2016-06-30T04:48:21.482Z,67.2
2016-06-30T04:49:21.449Z,67.4
2016-06-30T04:50:21.450Z,67.58
2016-06-30T04:51:21.433Z,67.4
2016-06-30T04:52:21.435Z,67.4
2016-06-30T04:53:21.441Z,67.2
2016-06-30T04:54:21.440Z,67.4
2016-06-30T04:55:21.445Z,67.3
2016-06-30T04:56:21.651Z,67.2
2016-06-30T04:57:21.465Z,67.4
2016-06-30T04:58:21.439Z,67.2
2016-06-30T04:59:21.435Z,67.3
2016-06-30T05:00:21.639Z,67.3
2016-06-30T05:01:21.437Z,67.3
2016-06-30T05:02:21.435Z,66.91
2016-06-30T05:03:21.434Z,67.4
2016-06-30T05:04:21.431Z,67.4
2016-06-30T05:05:21.446Z,67.2
2016-06-30T05:06:21.438Z,67.2
2016-06-30T05:07:21.499Z,67.2
2016-06-30T05:08:21.431Z,67.1
2016-06-30T05:09:21.652Z,67.3
2016-06-30T05:10:21.445Z,67.1
2016-06-30T05:11:21.435Z,67.58
2016-06-30T05:12:21.437Z,67.4
2016-06-30T05:13:21.434Z,67.2
2016-06-30T05:14:21.426Z,67.1
2016-06-30T05:15:21.441Z,67.1
2016-06-30T05:16:21.433Z,67.49
2016-06-30T05:17:21.438Z,67.49
2016-06-30T05:18:21.422Z,67.3
2016-06-30T05:19:21.436Z,67.2
2016-06-30T05:20:21.429Z,67.2
2016-06-30T05:21:21.455Z,67.58
2016-06-30T05:22:21.432Z,67.49
2016-06-30T05:23:21.430Z,67.1
2016-06-30T05:24:21.428Z,67.4
2016-06-30T05:25:21.429Z,67.49
2016-06-30T05:26:21.437Z,67.4
2016-06-30T05:27:21.638Z,67.3
2016-06-30T05:28:21.425Z,67.3
2016-06-30T05:29:21.428Z,67.4
2016-06-30T05:30:21.437Z,67.1
2016-06-30T05:31:21.437Z,67.2
2016-06-30T05:32:21.442Z,67
2016-06-30T05:33:21.437Z,67.2
2016-06-30T05:34:21.428Z,67.1
2016-06-30T05:35:21.436Z,67.1
2016-06-30T05:36:21.434Z,67.2
2016-06-30T05:37:21.651Z,67.4
2016-06-30T05:38:21.443Z,67.1
2016-06-30T05:39:21.455Z,67.2
2016-06-30T05:40:21.420Z,67.2
2016-06-30T05:41:21.455Z,67.4
2016-06-30T05:42:21.428Z,67.4
2016-06-30T05:43:21.431Z,67.2
2016-06-30T05:44:21.422Z,67.1
2016-06-30T05:45:21.435Z,67
2016-06-30T05:46:21.436Z,67.2
2016-06-30T05:47:21.426Z,67.4
2016-06-30T05:48:21.629Z,67.4
2016-06-30T05:49:21.430Z,67.58
2016-06-30T05:50:21.424Z,67.3
2016-06-30T05:51:21.425Z,67.4
2016-06-30T05:52:21.428Z,67.58
2016-06-30T05:53:21.634Z,67.4
2016-06-30T05:54:21.422Z,67.1
2016-06-30T05:55:21.429Z,67.58
2016-06-30T05:56:21.434Z,67.58
2016-06-30T05:57:21.450Z,67.58
2016-06-30T05:58:21.431Z,67.68
2016-06-30T05:59:21.423Z,67.3
2016-06-30T06:00:21.435Z,67.4
2016-06-30T06:01:21.423Z,67.58
2016-06-30T06:02:21.620Z,67.58
2016-06-30T06:03:21.419Z,68.07
2016-06-30T06:04:21.419Z,67.68
2016-06-30T06:05:21.425Z,67.4
2016-06-30T06:06:21.625Z,67.49
2016-06-30T06:07:21.426Z,67.58
2016-06-30T06:08:21.416Z,67.68
2016-06-30T06:09:21.425Z,67.68
2016-06-30T06:10:21.417Z,67.88
2016-06-30T06:11:21.413Z,68.07
2016-06-30T06:12:21.424Z,68.16
2016-06-30T06:13:21.428Z,68.16
2016-06-30T06:14:21.417Z,68.07
2016-06-30T06:15:21.420Z,67.97
2016-06-30T06:16:21.425Z,67.97
2016-06-30T06:17:21.426Z,68.16
2016-06-30T06:18:21.424Z,68.07
2016-06-30T06:19:21.421Z,68.16
2016-06-30T06:20:21.621Z,67.97
2016-06-30T06:21:21.638Z,67.97
2016-06-30T06:22:21.443Z,68.35
2016-06-30T06:23:21.429Z,68.07
2016-06-30T06:24:21.615Z,68.07
2016-06-30T06:25:21.427Z,67.88
2016-06-30T06:26:21.435Z,68.26
2016-06-30T06:27:21.442Z,68.16
2016-06-30T06:28:21.419Z,68.35
2016-06-30T06:29:21.421Z,68.26
2016-06-30T06:30:21.606Z,68.45
2016-06-30T06:31:21.409Z,67.78
2016-06-30T06:32:21.421Z,68.26
2016-06-30T06:33:21.619Z,68.16
2016-06-30T06:34:21.422Z,68.26
2016-06-30T06:35:21.422Z,68.16
2016-06-30T06:36:21.425Z,68.26
2016-06-30T06:37:21.618Z,68.26
2016-06-30T06:38:21.430Z,68.26
2016-06-30T06:39:21.417Z,68.07
2016-06-30T06:40:21.423Z,68.26
2016-06-30T06:41:21.422Z,68.35
2016-06-30T06:42:21.407Z,68.07
2016-06-30T06:43:21.422Z,68.35
2016-06-30T06:44:21.406Z,68.26
2016-06-30T06:45:21.435Z,68.35
2016-06-30T06:46:21.455Z,68.35
2016-06-30T06:47:21.410Z,68.07
2016-06-30T06:48:21.414Z,68.26
2016-06-30T06:49:21.412Z,68.65
2016-06-30T06:50:21.415Z,68.74
2016-06-30T06:51:21.422Z,68.74
2016-06-30T06:52:21.407Z,68.65
2016-06-30T06:53:21.621Z,68.74
2016-06-30T06:54:21.431Z,68.74
2016-06-30T06:55:21.411Z,68.65
2016-06-30T06:56:21.426Z,68.65
2016-06-30T06:57:21.419Z,68.74
2016-06-30T06:58:21.415Z,68.74
2016-06-30T06:59:21.598Z,68.74
2016-06-30T07:00:21.429Z,68.55
2016-06-30T07:01:21.410Z,68.74
2016-06-30T07:02:21.411Z,68.65
2016-06-30T07:03:21.413Z,68.55
2016-06-30T07:04:21.413Z,68.74
2016-06-30T07:05:21.412Z,68.65
2016-06-30T07:06:21.820Z,68.65
2016-06-30T07:07:21.406Z,68.65
2016-06-30T07:08:21.411Z,68.45
2016-06-30T07:09:21.425Z,68.55
2016-06-30T07:10:21.413Z,68.65
2016-06-30T07:11:21.418Z,68.65
2016-06-30T07:12:21.399Z,68.65
2016-06-30T07:13:21.629Z,68.74
2016-06-30T07:14:21.403Z,68.65
2016-06-30T07:15:21.421Z,68.74
2016-06-30T07:16:21.403Z,68.65
2016-06-30T07:17:21.408Z,68.84
2016-06-30T07:18:21.430Z,68.74
2016-06-30T07:19:21.399Z,68.93
2016-06-30T07:20:21.400Z,68.93
2016-06-30T07:21:21.403Z,69.23
2016-06-30T07:22:21.407Z,69.03
2016-06-30T07:23:21.423Z,69.23
2016-06-30T07:24:21.410Z,69.42
2016-06-30T07:25:21.404Z,69.42
2016-06-30T07:26:21.409Z,69.42
2016-06-30T07:27:21.398Z,69.32
2016-06-30T07:28:21.401Z,69.32
2016-06-30T07:29:21.405Z,69.32
2016-06-30T07:30:21.418Z,69.32
2016-06-30T07:31:21.405Z,69.13
2016-06-30T07:32:21.401Z,69.23
2016-06-30T07:33:21.401Z,69.42
2016-06-30T07:34:21.407Z,69.13
2016-06-30T07:35:21.400Z,68.65
2016-06-30T07:36:21.398Z,68.65
2016-06-30T07:37:21.402Z,68.84
2016-06-30T07:38:21.399Z,69.23
2016-06-30T07:39:21.391Z,69.23
2016-06-30T07:40:21.473Z,69.03
2016-06-30T07:41:21.408Z,68.84
2016-06-30T07:42:21.406Z,68.74
2016-06-30T07:43:21.421Z,68.65
2016-06-30T07:44:21.399Z,68.74
2016-06-30T07:45:21.398Z,69.03
2016-06-30T07:46:21.394Z,68.74
2016-06-30T07:47:21.388Z,68.84
2016-06-30T07:48:21.604Z,68.65
2016-06-30T07:49:21.396Z,68.84
2016-06-30T07:50:21.395Z,69.03
2016-06-30T07:51:21.382Z,69.32
2016-06-30T07:52:21.396Z,69.13
2016-06-30T07:53:21.392Z,68.93
2016-06-30T07:54:21.399Z,68.74
2016-06-30T07:55:21.391Z,68.74
2016-06-30T07:56:21.388Z,68.65
2016-06-30T07:57:21.391Z,68.55
2016-06-30T07:58:21.393Z,68.84
2016-06-30T07:59:21.403Z,68.55
2016-06-30T08:00:21.388Z,68.84
2016-06-30T08:01:21.386Z,69.03
2016-06-30T08:02:21.387Z,68.65
2016-06-30T08:03:21.385Z,68.55
2016-06-30T08:04:21.386Z,68.93
2016-06-30T08:05:21.392Z,68.84
2016-06-30T08:06:21.384Z,68.93
2016-06-30T08:07:21.391Z,68.84
2016-06-30T08:08:21.385Z,68.84
2016-06-30T08:09:21.387Z,68.74
2016-06-30T08:10:21.398Z,69.13
2016-06-30T08:11:21.383Z,69.03
2016-06-30T08:12:21.378Z,69.03
2016-06-30T08:13:21.391Z,69.32
2016-06-30T08:14:21.384Z,69.03
2016-06-30T08:15:21.410Z,68.65
2016-06-30T08:16:21.581Z,68.74
2016-06-30T08:17:21.388Z,68.65
2016-06-30T08:18:21.391Z,68.65
2016-06-30T08:19:21.378Z,68.93
2016-06-30T08:20:21.588Z,68.74
2016-06-30T08:21:21.398Z,68.93
2016-06-30T08:22:21.579Z,68.74
2016-06-30T08:23:21.380Z,68.65
2016-06-30T08:24:21.385Z,68.93
2016-06-30T08:25:21.378Z,68.74
2016-06-30T08:26:21.409Z,68.55
2016-06-30T08:27:21.391Z,68.55
2016-06-30T08:28:21.397Z,68.55
2016-06-30T08:29:21.395Z,68.93
2016-06-30T08:30:21.395Z,68.55
2016-06-30T08:31:21.386Z,68.45
2016-06-30T08:32:21.367Z,68.45
2016-06-30T08:33:21.384Z,68.65
2016-06-30T08:34:21.382Z,68.65
2016-06-30T08:35:21.395Z,68.55
2016-06-30T08:36:21.379Z,68.74
2016-06-30T08:37:21.388Z,68.84
2016-06-30T08:38:21.387Z,68.65
2016-06-30T08:39:21.380Z,69.32
2016-06-30T08:40:21.374Z,69.03
2016-06-30T08:41:21.403Z,69.32
2016-06-30T08:42:21.375Z,69.42
2016-06-30T08:43:21.398Z,69.32
2016-06-30T08:44:21.377Z,69.42
2016-06-30T08:45:21.371Z,69.61
2016-06-30T08:46:21.375Z,69.32
2016-06-30T08:47:21.378Z,69.13
2016-06-30T08:48:21.380Z,68.84
2016-06-30T08:49:21.371Z,69.03
2016-06-30T08:50:21.377Z,68.74
2016-06-30T08:51:21.371Z,69.03
2016-06-30T08:52:21.370Z,68.93
2016-06-30T08:53:21.369Z,68.93
2016-06-30T08:54:21.367Z,68.93
2016-06-30T08:55:21.375Z,68.74
2016-06-30T08:56:21.394Z,68.74
2016-06-30T08:57:21.394Z,68.65
2016-06-30T08:58:21.584Z,68.65
2016-06-30T08:59:21.386Z,68.45
2016-06-30T09:00:21.371Z,68.74
2016-06-30T09:01:21.380Z,68.74
2016-06-30T09:02:21.374Z,68.65
2016-06-30T09:03:21.374Z,68.65
2016-06-30T09:04:21.367Z,68.65
2016-06-30T09:05:21.427Z,68.55
2016-06-30T09:06:21.368Z,68.68
2016-06-30T09:07:21.369Z,68.68
2016-06-30T09:08:21.373Z,68.68
2016-06-30T09:09:21.374Z,68.59
2016-06-30T09:10:21.390Z,68.68
2016-06-30T09:11:21.366Z,68.68
2016-06-30T09:12:21.381Z,68.68
2016-06-30T09:13:21.372Z,68.59
2016-06-30T09:14:21.366Z,68.65
2016-06-30T09:15:21.367Z,68.68
2016-06-30T09:16:21.371Z,68.68
2016-06-30T09:17:21.374Z,68.87
2016-06-30T09:18:21.363Z,68.68
2016-06-30T09:19:21.363Z,68.77
2016-06-30T09:20:21.359Z,68.77
2016-06-30T09:21:21.363Z,68.45
2016-06-30T09:22:21.369Z,68.49
2016-06-30T09:23:21.385Z,68.49
2016-06-30T09:24:21.379Z,68.77
2016-06-30T09:25:21.569Z,68.68
2016-06-30T09:26:21.362Z,68.68
2016-06-30T09:27:21.406Z,68.68
2016-06-30T09:28:21.366Z,68.59
2016-06-30T09:29:21.573Z,68.77
2016-06-30T09:30:21.367Z,68.65
2016-06-30T09:31:21.572Z,68.45
2016-06-30T09:32:21.366Z,68.68
2016-06-30T09:33:21.485Z,68.87
2016-06-30T09:34:21.362Z,68.59
2016-06-30T09:35:21.367Z,68.68
2016-06-30T09:36:21.364Z,68.68
2016-06-30T09:37:21.369Z,68.68
2016-06-30T09:38:21.363Z,68.68
2016-06-30T09:39:21.366Z,68.87
2016-06-30T09:40:21.350Z,68.77
2016-06-30T09:41:21.359Z,68.49
2016-06-30T09:42:21.372Z,68.68
2016-06-30T09:43:21.371Z,68.68
2016-06-30T09:44:21.368Z,68.87
2016-06-30T09:45:21.359Z,68.97
2016-06-30T09:46:21.368Z,68.59
2016-06-30T09:47:21.370Z,68.68
2016-06-30T09:48:21.563Z,68.74
2016-06-30T09:49:21.562Z,68.68
2016-06-30T09:50:21.353Z,68.97
2016-06-30T09:51:21.582Z,68.68
2016-06-30T09:52:21.367Z,68.97
2016-06-30T09:53:21.359Z,68.93
2016-06-30T09:54:21.355Z,68.68
2016-06-30T09:55:21.359Z,68.87
2016-06-30T09:56:21.365Z,68.87
2016-06-30T09:57:21.371Z,68.97
2016-06-30T09:58:21.357Z,68.97
2016-06-30T09:59:21.567Z,68.97
2016-06-30T10:00:21.357Z,68.97
2016-06-30T10:01:21.359Z,68.93
2016-06-30T10:02:21.366Z,69.07
2016-06-30T10:03:21.358Z,68.74
2016-06-30T10:04:21.583Z,69.07
2016-06-30T10:05:21.592Z,69.07
2016-06-30T10:06:21.378Z,68.87
2016-06-30T10:07:21.363Z,68.77
2016-06-30T10:08:21.355Z,68.87
2016-06-30T10:09:21.355Z,68.97
2016-06-30T10:10:21.353Z,68.77
2016-06-30T10:11:21.357Z,68.97
2016-06-30T10:12:21.349Z,68.77
2016-06-30T10:13:21.358Z,69.35
2016-06-30T10:14:21.352Z,69.45
2016-06-30T10:15:21.353Z,69.35
2016-06-30T10:16:21.349Z,69.26
2016-06-30T10:17:21.351Z,69.26
2016-06-30T10:18:21.352Z,69.26
2016-06-30T10:19:21.354Z,69.45
2016-06-30T10:20:21.347Z,69.55
2016-06-30T10:21:21.349Z,69.35
2016-06-30T10:22:21.350Z,69.55
2016-06-30T10:23:21.352Z,69.84
2016-06-30T10:24:21.349Z,69.51
2016-06-30T10:25:21.363Z,69.64
2016-06-30T10:26:21.350Z,69.64
2016-06-30T10:27:21.358Z,69.55
2016-06-30T10:28:21.373Z,69.64
2016-06-30T10:29:21.353Z,69.64
2016-06-30T10:30:21.345Z,69.45
2016-06-30T10:31:21.554Z,69.45
2016-06-30T10:32:21.351Z,69.64
2016-06-30T10:33:21.353Z,69.55
2016-06-30T10:34:21.364Z,69.64
2016-06-30T10:35:21.362Z,69.45
2016-06-30T10:36:21.351Z,69.45
2016-06-30T10:37:21.372Z,69.55
2016-06-30T10:38:21.342Z,69.26
2016-06-30T10:39:21.345Z,69.55
2016-06-30T10:40:21.354Z,69.64
2016-06-30T10:41:21.355Z,69.26
2016-06-30T10:42:21.342Z,69.55
2016-06-30T10:43:21.339Z,69.16
2016-06-30T10:44:21.359Z,69.16
2016-06-30T10:45:21.364Z,69.16
2016-06-30T10:46:21.363Z,69.16
2016-06-30T10:47:21.347Z,69.35
2016-06-30T10:48:21.350Z,69.45
2016-06-30T10:49:21.363Z,69.45
2016-06-30T10:50:21.362Z,69.35
2016-06-30T10:51:21.344Z,69.26
2016-06-30T10:52:21.352Z,69.35
2016-06-30T10:53:21.343Z,69.35
2016-06-30T10:54:21.343Z,68.87
2016-06-30T10:55:21.357Z,68.68
2016-06-30T10:56:21.350Z,69.07
2016-06-30T10:57:21.350Z,68.87
2016-06-30T10:58:21.347Z,68.68
2016-06-30T10:59:21.343Z,69.1
2016-06-30T11:00:21.351Z,68.59
2016-06-30T11:01:21.351Z,68.59
2016-06-30T11:02:21.350Z,69.07
2016-06-30T11:03:21.342Z,69.07
2016-06-30T11:04:21.343Z,69.35
2016-06-30T11:05:21.359Z,69.35
2016-06-30T11:06:21.347Z,69.35
2016-06-30T11:07:21.345Z,69.16
2016-06-30T11:08:21.350Z,69.35
2016-06-30T11:09:21.346Z,68.97
2016-06-30T11:10:21.358Z,68.87
2016-06-30T11:11:21.360Z,69.35
2016-06-30T11:12:21.349Z,68.97
2016-06-30T11:13:21.344Z,68.77
2016-06-30T11:14:21.561Z,68.68
2016-06-30T11:15:21.345Z,68.87
2016-06-30T11:16:21.348Z,68.97
2016-06-30T11:17:21.547Z,69.07
2016-06-30T11:18:21.345Z,68.77
2016-06-30T11:19:21.354Z,68.87
2016-06-30T11:20:21.356Z,68.49
2016-06-30T11:21:21.549Z,68.77
2016-06-30T11:22:21.339Z,68.71
2016-06-30T11:23:21.347Z,68.68
2016-06-30T11:24:21.351Z,68.49
2016-06-30T11:25:21.357Z,68.97
2016-06-30T11:26:21.353Z,68.71
2016-06-30T11:27:21.559Z,68.68
2016-06-30T11:28:21.355Z,68.68
2016-06-30T11:29:21.390Z,68.77
2016-06-30T11:30:21.351Z,68.87
2016-06-30T11:31:21.351Z,68.68
2016-06-30T11:32:21.357Z,68.59
2016-06-30T11:33:21.355Z,68.59
2016-06-30T11:34:21.558Z,68.68
2016-06-30T11:35:21.365Z,68.62
2016-06-30T11:36:21.342Z,68.71
2016-06-30T11:37:21.343Z,68.68
2016-06-30T11:38:21.341Z,68.71
2016-06-30T11:39:21.339Z,68.68
2016-06-30T11:40:21.362Z,68.49
2016-06-30T11:41:21.355Z,68.59
2016-06-30T11:42:21.367Z,68.77
2016-06-30T11:43:21.370Z,68.49
2016-06-30T11:44:34.087Z,68.19
2016-06-30T11:45:21.343Z,68.19
2016-06-30T11:46:21.344Z,68.19
2016-06-30T11:47:21.346Z,68.49
2016-06-30T11:48:21.387Z,68.77
2016-06-30T11:49:21.346Z,68.71
2016-06-30T11:50:21.350Z,68.68
2016-06-30T11:51:21.539Z,68.68
2016-06-30T11:52:21.349Z,68.68
2016-06-30T11:53:21.351Z,68.77
2016-06-30T11:54:21.390Z,68.68
2016-06-30T11:55:21.374Z,68.68
2016-06-30T11:56:21.347Z,68.81
2016-06-30T11:57:21.361Z,68.81
2016-06-30T11:58:21.343Z,68.52
2016-06-30T11:59:21.363Z,68.77
2016-06-30T12:00:21.358Z,68.68
2016-06-30T12:01:21.363Z,68.97
2016-06-30T12:02:21.548Z,68.97
2016-06-30T12:03:21.354Z,69
2016-06-30T12:04:21.343Z,68.81
2016-06-30T12:05:21.379Z,68.68
2016-06-30T12:06:21.351Z,68.19
2016-06-30T12:07:21.346Z,68.13
2016-06-30T12:08:21.564Z,68.23
2016-06-30T12:09:21.557Z,68.39
2016-06-30T12:10:21.357Z,68.43
2016-06-30T12:11:21.339Z,68.43
2016-06-30T12:12:21.353Z,68.52
2016-06-30T12:13:21.347Z,68.33
2016-06-30T12:14:21.345Z,68.23
2016-06-30T12:15:21.350Z,68.33
2016-06-30T12:16:21.365Z,68.23
2016-06-30T12:17:21.343Z,68.43
2016-06-30T12:18:21.351Z,68.33
2016-06-30T12:19:21.350Z,68.33
2016-06-30T12:20:21.353Z,68.04
2016-06-30T12:21:21.344Z,68.04
2016-06-30T12:22:21.353Z,68.13
2016-06-30T12:23:21.355Z,67.94
2016-06-30T12:24:21.347Z,67.94
2016-06-30T12:25:21.349Z,67.85
2016-06-30T12:26:21.365Z,68.13
2016-06-30T12:27:21.351Z,67.75
2016-06-30T12:28:21.358Z,68.13
2016-06-30T12:29:21.344Z,68.23
2016-06-30T12:30:21.361Z,68.23
2016-06-30T12:31:21.362Z,68.23
2016-06-30T12:32:21.346Z,67.85
2016-06-30T12:33:21.354Z,67.94
2016-06-30T12:34:21.346Z,67.85
2016-06-30T12:35:21.351Z,67.94
2016-06-30T12:36:21.357Z,67.75
2016-06-30T12:37:21.366Z,67.94
2016-06-30T12:38:21.343Z,68.04
2016-06-30T12:39:21.351Z,68.13
2016-06-30T12:40:21.350Z,68.23
2016-06-30T12:41:21.348Z,68.13
2016-06-30T12:42:21.344Z,68.04
2016-06-30T12:43:21.346Z,68.04
2016-06-30T12:44:21.354Z,67.85
2016-06-30T12:45:21.363Z,67.85
2016-06-30T12:46:21.362Z,67.94
2016-06-30T12:47:21.350Z,67.85
2016-06-30T12:48:21.354Z,68.23
2016-06-30T12:49:21.344Z,68.23
2016-06-30T12:50:21.348Z,68.43
2016-06-30T12:51:21.349Z,68.13
2016-06-30T12:52:21.359Z,68.43
2016-06-30T12:53:21.353Z,67.75
2016-06-30T12:54:21.351Z,68.04
2016-06-30T12:55:21.346Z,68.04
2016-06-30T12:56:21.350Z,68.04